createdAt,value
2019-04-06T00:04:38.579Z,41.47
2019-04-06T00:09:43.526Z,53.40
2019-04-06T00:14:48.631Z,45.97
2019-04-06T00:19:53.443Z,44.93
2019-04-06T00:24:58.124Z,46.03
2019-04-06T00:30:02.939Z,45.67
2019-04-06T00:35:07.871Z,55.87
2019-04-06T00:40:12.854Z,37.17
2019-04-06T00:45:17.583Z,47.90
2019-04-06T00:50:22.366Z,38.73
2019-04-06T00:55:26.964Z,39.23
2019-04-06T01:00:31.967Z,34.30
2019-04-06T01:05:37.003Z,49.93
2019-04-06T01:10:41.853Z,41.30
2019-04-06T01:15:46.939Z,37.63
2019-04-06T01:20:51.635Z,46.13
2019-04-06T01:26:06.945Z,36.63
2019-04-06T01:31:05.174Z,37.27
2019-04-06T01:36:09.907Z,36.33
2019-04-06T01:41:14.643Z,38.73
2019-04-06T01:46:19.284Z,48.50
2019-04-06T01:51:23.762Z,40.27
2019-04-06T01:56:28.552Z,38.17
2019-04-06T02:01:38.174Z,33.23
2019-04-06T02:06:42.962Z,40.03
2019-04-06T02:11:47.620Z,36.30
2019-04-06T02:16:52.302Z,24.50
2019-04-06T02:21:56.939Z,38.60
2019-04-06T02:27:01.411Z,28.33
2019-04-06T02:32:28.029Z,27.13
2019-04-06T02:37:40.477Z,30.60
2019-04-06T02:42:58.956Z,43.70
2019-04-06T02:48:03.708Z,35.53
2019-04-06T02:53:08.253Z,37.77
2019-04-06T02:58:13.046Z,42.00
2019-04-06T03:03:17.791Z,27.93
2019-04-06T03:08:22.637Z,48.27
2019-04-06T03:13:27.351Z,35.47
2019-04-06T03:18:31.995Z,45.53
2019-04-06T03:23:49.618Z,40.97
2019-04-06T03:28:43.073Z,39.37
2019-04-06T03:33:47.665Z,42.50
2019-04-06T03:38:52.420Z,36.63
2019-04-06T03:43:57.231Z,35.40
2019-04-06T03:49:01.808Z,43.13
2019-04-06T03:54:06.763Z,29.77
2019-04-06T03:59:11.360Z,40.63
2019-04-06T04:04:16.251Z,37.37
2019-04-06T04:09:20.767Z,29.43
2019-04-06T04:14:25.600Z,37.87
2019-04-06T04:19:30.191Z,27.90
2019-04-06T04:24:34.783Z,27.43
2019-04-06T04:29:40.587Z,37.30
2019-04-06T04:34:45.103Z,35.00
2019-04-06T04:39:49.708Z,40.50
2019-04-06T04:44:54.799Z,38.03
2019-04-06T04:50:04.664Z,42.60
2019-04-06T04:55:11.820Z,33.20
2019-04-06T05:00:37.853Z,33.57
2019-04-06T05:05:43.147Z,36.17
2019-04-06T05:10:48.179Z,36.70
2019-04-06T05:16:12.859Z,29.83
2019-04-06T05:21:18.016Z,44.20
2019-04-06T05:26:24.618Z,44.90
2019-04-06T05:31:29.813Z,40.80
2019-04-06T05:36:39.271Z,50.77
2019-04-06T05:41:46.508Z,43.70
2019-04-06T05:46:52.599Z,40.20
2019-04-06T05:51:57.838Z,49.97
2019-04-06T05:57:02.840Z,44.00
2019-04-06T06:02:09.818Z,36.20
2019-04-06T06:07:21.940Z,30.50
2019-04-06T06:12:26.857Z,31.20
2019-04-06T06:17:32.025Z,36.23
2019-04-06T06:22:36.993Z,26.63
2019-04-06T06:27:41.644Z,28.63
2019-04-06T06:32:46.323Z,29.03
2019-04-06T06:37:50.915Z,41.73
2019-04-06T06:42:55.549Z,35.27
2019-04-06T06:48:00.246Z,26.47
2019-04-06T06:53:05.051Z,36.93
2019-04-06T06:58:10.301Z,32.07
2019-04-06T07:03:15.083Z,26.47
2019-04-06T07:08:19.675Z,38.67
2019-04-06T07:13:24.211Z,35.67
2019-04-06T07:18:28.711Z,24.60
2019-04-06T07:23:33.350Z,24.10
2019-04-06T07:28:39.122Z,26.93
2019-04-06T07:33:44.236Z,23.87
2019-04-06T07:38:49.039Z,25.50
2019-04-06T07:43:53.618Z,23.27
2019-04-06T07:49:07.879Z,19.27
2019-04-06T07:54:05.007Z,27.23
2019-04-06T07:59:09.550Z,26.83
2019-04-06T08:04:14.229Z,32.43
2019-04-06T08:09:18.823Z,21.70
2019-04-06T08:14:23.693Z,33.90
2019-04-06T08:19:28.589Z,20.93
2019-04-06T08:24:33.871Z,22.07
2019-04-06T08:29:38.606Z,34.70
2019-04-06T08:34:43.435Z,23.53
2019-04-06T08:39:48.123Z,31.73
2019-04-06T08:44:52.935Z,34.90
2019-04-06T08:49:57.534Z,29.30
2019-04-06T08:55:02.216Z,21.77
2019-04-06T09:00:08.226Z,26.53
2019-04-06T09:05:12.818Z,26.43
2019-04-06T09:10:17.693Z,24.80
2019-04-06T09:15:22.385Z,26.90
2019-04-06T09:20:27.023Z,26.23
2019-04-06T09:25:31.860Z,22.47
2019-04-06T09:30:36.478Z,28.80
2019-04-06T09:35:41.053Z,31.53
2019-04-06T09:40:45.836Z,30.00
2019-04-06T09:46:05.299Z,30.47
2019-04-06T09:51:20.934Z,29.50
2019-04-06T09:56:44.973Z,30.47
2019-04-06T10:02:12.417Z,25.73
2019-04-06T10:07:46.031Z,30.33
2019-04-06T10:13:22.724Z,23.70
2019-04-06T10:18:35.852Z,25.27
2019-04-06T10:24:15.139Z,22.47
2019-04-06T10:29:54.395Z,31.37
2019-04-06T10:35:33.826Z,33.60
2019-04-06T10:40:47.431Z,31.13
2019-04-06T10:45:58.971Z,37.93
2019-04-06T10:51:18.050Z,26.93
2019-04-06T10:56:41.145Z,34.67
2019-04-06T11:02:14.154Z,34.83
2019-04-06T11:07:47.299Z,25.37
2019-04-06T11:13:26.270Z,30.30
2019-04-06T11:18:47.951Z,24.80
2019-04-06T11:24:01.890Z,28.63
2019-04-06T11:29:18.294Z,32.73
2019-04-06T11:34:50.911Z,32.50
2019-04-06T11:40:17.490Z,34.13
2019-04-06T11:45:28.306Z,32.23
2019-04-06T11:51:01.383Z,20.17
2019-04-06T11:56:13.777Z,25.23
2019-04-06T12:01:43.786Z,28.60
2019-04-06T12:06:56.705Z,35.07
2019-04-06T12:12:15.528Z,28.10
2019-04-06T12:17:40.508Z,33.60
2019-04-06T12:23:03.483Z,38.87
2019-04-06T12:28:17.043Z,28.20
2019-04-06T12:33:47.765Z,19.47
2019-04-06T12:39:01.726Z,30.33
2019-04-06T12:44:24.408Z,36.17
2019-04-06T12:49:57.250Z,36.47
2019-04-06T12:55:24.448Z,33.33
2019-04-06T13:00:50.727Z,30.83
2019-04-06T13:06:11.895Z,27.97
2019-04-06T13:11:27.009Z,33.83
2019-04-06T13:16:51.043Z,21.13
2019-04-06T13:22:13.926Z,19.30
2019-04-06T13:27:40.853Z,38.80
2019-04-06T13:33:00.476Z,19.87
2019-04-06T13:38:24.368Z,30.40
2019-04-06T13:43:57.398Z,30.13
2019-04-06T13:49:20.186Z,29.77
2019-04-06T13:54:42.493Z,30.13
2019-04-06T13:59:54.691Z,29.00
2019-04-06T14:05:09.443Z,28.93
2019-04-06T14:10:23.338Z,27.80
2019-04-06T14:15:57.782Z,29.07
2019-04-06T14:21:12.978Z,25.17
2019-04-06T14:26:39.886Z,20.90
2019-04-06T14:32:07.709Z,23.87
2019-04-06T14:37:30.315Z,22.67
2019-04-06T14:42:52.911Z,25.00
2019-04-06T14:48:23.034Z,22.77
2019-04-06T14:53:39.455Z,29.47
2019-04-06T14:59:02.556Z,30.03
2019-04-06T15:04:22.480Z,23.77
2019-04-06T15:09:58.478Z,25.80
2019-04-06T15:15:22.396Z,22.00
2019-04-06T15:20:34.038Z,23.83
2019-04-06T15:26:16.311Z,24.73
2019-04-06T15:31:30.236Z,21.17
2019-04-06T15:36:53.662Z,18.47
2019-04-06T15:42:20.598Z,21.50
2019-04-06T15:47:43.422Z,23.23
2019-04-06T15:52:57.149Z,25.20
2019-04-06T15:58:32.775Z,17.37
2019-04-06T16:03:56.743Z,11.73
2019-04-06T16:09:19.020Z,13.30
2019-04-06T16:14:40.402Z,13.43
2019-04-06T16:20:00.715Z,10.03
2019-04-06T16:25:24.863Z,21.30
2019-04-06T16:30:47.554Z,23.43
2019-04-06T16:36:09.835Z,18.17
2019-04-06T16:41:27.570Z,20.27
2019-04-06T16:46:42.780Z,19.47
2019-04-06T16:52:07.171Z,17.97
2019-04-06T16:57:30.916Z,11.47
2019-04-06T17:03:06.373Z,17.50
2019-04-06T17:08:16.091Z,14.57
2019-04-06T17:13:37.554Z,11.17
2019-04-06T17:19:14.683Z,15.03
2019-04-06T17:24:50.435Z,17.87
2019-04-06T17:30:07.183Z,30.40
2019-04-06T17:35:46.612Z,29.67
2019-04-06T17:41:10.352Z,36.57
2019-04-06T17:46:33.329Z,32.37
2019-04-06T17:51:53.336Z,35.07
2019-04-06T17:57:16.446Z,39.37
2019-04-06T18:02:49.942Z,26.03
2019-04-06T18:08:15.413Z,22.87
2019-04-06T18:13:26.911Z,22.87
2019-04-06T18:18:31.739Z,24.00
2019-04-06T18:23:36.458Z,25.93
2019-04-06T18:28:41.185Z,24.80
2019-04-06T18:33:45.691Z,21.37
2019-04-06T18:38:59.464Z,24.77
2019-04-06T18:44:04.506Z,24.57
2019-04-06T18:49:09.842Z,22.37
2019-04-06T18:54:21.386Z,25.47
2019-04-06T18:59:31.309Z,22.77
2019-04-06T19:04:39.623Z,22.53
2019-04-06T19:10:08.086Z,23.37
2019-04-06T19:15:12.894Z,22.43
2019-04-06T19:20:18.676Z,24.80
2019-04-06T19:25:26.101Z,23.53
2019-04-06T19:30:31.589Z,25.50
2019-04-06T19:35:37.483Z,24.47
2019-04-06T19:40:42.736Z,23.00
2019-04-06T19:45:47.766Z,24.73
2019-04-06T19:50:52.470Z,25.87
2019-04-06T19:55:57.501Z,29.07
2019-04-06T20:01:02.056Z,24.73
2019-04-06T20:06:06.787Z,29.07
2019-04-06T20:11:11.478Z,25.70
2019-04-06T20:16:16.562Z,31.07
2019-04-06T20:21:21.691Z,30.43
2019-04-06T20:26:26.641Z,31.83
2019-04-06T20:31:31.538Z,30.33
2019-04-06T20:36:36.486Z,33.60
2019-04-06T20:41:41.560Z,28.93
2019-04-06T20:46:46.371Z,34.33
2019-04-06T20:51:51.078Z,33.57
2019-04-06T20:56:57.960Z,40.93
2019-04-06T21:02:02.848Z,36.07
2019-04-06T21:07:07.828Z,31.70
2019-04-06T21:12:12.716Z,33.20
2019-04-06T21:17:17.643Z,32.53
2019-04-06T21:22:22.819Z,34.40
2019-04-06T21:27:28.314Z,31.23
2019-04-06T21:32:33.543Z,32.53
2019-04-06T21:37:38.524Z,36.53
2019-04-06T21:42:43.274Z,31.97
2019-04-06T21:47:48.034Z,33.07
2019-04-06T21:52:53.051Z,39.03
2019-04-06T21:57:58.363Z,33.10
2019-04-06T22:03:04.391Z,30.90
2019-04-06T22:08:09.383Z,33.37
2019-04-06T22:13:14.845Z,36.77
2019-04-06T22:18:22.674Z,42.23
2019-04-06T22:23:38.744Z,46.87
2019-04-06T22:28:33.685Z,45.73
2019-04-06T22:33:38.287Z,50.87
2019-04-06T22:38:49.311Z,53.47
2019-04-06T22:43:53.898Z,54.07
2019-04-06T22:48:58.750Z,54.40
2019-04-06T22:54:03.828Z,47.30
2019-04-06T22:59:08.848Z,54.20
2019-04-06T23:04:28.720Z,46.33
2019-04-06T23:09:33.443Z,41.80
2019-04-06T23:14:38.336Z,43.60
2019-04-06T23:19:43.275Z,41.20
2019-04-06T23:24:47.996Z,48.10
2019-04-06T23:29:53.464Z,53.97
2019-04-06T23:35:01.792Z,49.90
2019-04-06T23:40:05.563Z,43.70
2019-04-06T23:45:10.334Z,42.57
2019-04-06T23:50:15.109Z,41.03
2019-04-06T23:55:20.014Z,50.93
